ADDS METAR Data INFO
IDs: Format: Raw Decoded Include TAF

Data at: 2202 UTC 24 Feb 2018

KTOL 242152Z 08012G20KT 10SM OVC017 03/00 A3005 RMK AO2 SLP181 T00330000
KTOL 242052Z 08011G20KT 10SM OVC018 04/00 A3005 RMK AO2 SLP183 T00390000 56033
KTOL 241952Z 08011KT 10SM OVC018 04/01 A3008 RMK AO2 SLP189 T00440006
KTOL 241852Z 07014KT 10SM OVC019 04/01 A3010 RMK AO2 SLP198 T00440006
KTOL 241752Z 10011KT 10SM OVC019 03/01 A3015 RMK AO2 RAE17 SLP216 P0000 60000 T00330006 10039 20033 58019
KTOL 241714Z 09010G17KT 10SM -RA OVC016 04/02 A3017 RMK AO2 P0000 T00390017
KTOL 241652Z 09012G19KT 10SM -RA OVC013 03/02 A3018 RMK AO2 RAB29 SLP225 P0000 T00330017
KTOL 241552Z 09014G19KT 10SM OVC015 03/01 A3020 RMK AO2 SLP232 T00330011
KTOL 241519Z 08010KT 10SM OVC016 04/01 A3020 RMK AO2 T00390011
KTOL 241459Z 09015G19KT 10SM OVC014 04/02 A3021 RMK AO2 T00390017
KTOL 241452Z 09009KT 10SM OVC015 04/02 A3021 RMK AO2 SLP234 T00390017 53002
KTOL 241352Z 07010KT 10SM OVC015 04/02 A3020 RMK AO2 SLP231 T00390017
KTOL 241252Z AUTO 05010KT 10SM OVC013 03/02 A3019 RMK AO2 SLP228 T00330017
KTOL 241226Z 04008KT 10SM OVC014 03/02 A3019 RMK AO2 T00330017
KTOL 241159Z 04008KT 10SM OVC016 03/02 A3020 RMK AO2 T00330017
KTOL 241152Z 03007KT 10SM BKN014 OVC080 03/02 A3020 RMK AO2 SLP231 70026 T00330017 10050 20033 58008
KTOL 241144Z 05006KT 10SM BKN014 OVC080 03/02 A3020 RMK AO2 T00330017
KTOL 241124Z 05004KT 10SM OVC015 03/02 A3021 RMK AO2 T00330017
KTOL 241052Z 04006KT 10SM OVC013 03/02 A3022 RMK AO2 SLP238 T00330017
KTOL 240952Z 03007KT 10SM OVC011 03/02 A3022 RMK AO2 SLP238 T00330017
KTOL 240852Z 02007KT 10SM OVC012 04/02 A3023 RMK AO2 SLP240 T00390022 56000
KTOL 240752Z 01006KT 10SM OVC013 04/03 A3023 RMK AO2 SLP241 T00440033
KTOL 240652Z 35005KT 10SM OVC013 04/03 A3021 RMK AO2 SLP235 T00440033
KTOL 240614Z 33007KT 10SM OVC014 05/04 A3023 RMK AO2 T00500039
KTOL 240552Z 32007KT 10SM OVC015 05/04 A3023 RMK AO2 SLP240 T00500039 10089 20050 53002
KTOL 240549Z 31008KT 10SM OVC015 05/04 A3023 RMK AO2
KTOL 240452Z 31007KT 10SM OVC013 06/04 A3021 RMK AO2 SLP235 T00610044 401060011
KTOL 240429Z 30006KT 10SM OVC013 06/05 A3021 RMK AO2 T00610050
KTOL 240416Z 29008KT 10SM OVC015 07/06 A3022 RMK AO2 T00670056
KTOL 240352Z 29009KT 9SM OVC013 07/06 A3022 RMK AO2 SLP237 T00670061
KTOL 240252Z 31008KT 10SM OVC010 08/07 A3021 RMK AO2 SLP234 T00780067 53007
KTOL 240152Z 28008KT 10SM OVC014 08/07 A3020 RMK AO2 SLP230 T00780067
KTOL 240052Z 27010KT 10SM OVC015 08/07 A3020 RMK AO2 SLP232 T00830072
KTOL 232352Z 27011KT 10SM OVC013 09/08 A3019 RMK AO2 SLP228 T00890078 10106 20089 53017
KTOL 232300Z 27008KT 10SM OVC014 09/08 A3016 RMK AO2 T00940083
KTOL 232252Z 27013KT 10SM OVC015 09/09 A3016 RMK AO2 SLP218 T00940089
KTOL 232228Z 26013KT 10SM OVC015 10/08 A3015 RMK AO2 T01000083
KTOL 232152Z 26017KT 10SM OVC010 10/09 A3015 RMK AO2 SLP213 T01000089
KTOL 232052Z 26017G27KT 10SM OVC012 11/09 A3014 RMK AO2 PK WND 27027/2048 SLP210 T01060094 53010
KTOL 232028Z 25017G22KT 10SM OVC010 11/09 A3014 RMK AO2 T01060094
KTOL 231952Z 24016KT 10SM OVC009 11/10 A3012 RMK AO2 SLP204 T01060100
KTOL 231907Z 26018G24KT 10SM OVC009 10/09 A3010 RMK AO2 T01000094
KTOL 231852Z 25015G23KT 10SM BKN010 OVC038 11/10 A3011 RMK AO2 SLP198 T01060100
KTOL 231836Z 26013KT 10SM BKN010 OVC038 11/10 A3010 RMK AO2 T01060100
KTOL 231752Z 24016KT 10SM OVC007 10/10 A3011 RMK AO2 SLP199 60026 T01000100 10100 20022 55005
KTOL 231652Z 21007KT 8SM OVC005 08/08 A3010 RMK AO2 RAE14 SLP198 P0002 T00830083
KTOL 231632Z 23004KT 3SM BR SCT005 OVC008 07/07 A3012 RMK AO2 RAE14 P0002 T00670067
KTOL 231609Z 28004KT 1SM -RA BR SCT005 BKN010 OVC015 06/06 A3012 RMK AO2 SFC VIS 2 1/2 P0001 T00610061
KTOL 231552Z 27005KT 1SM -RA BR BKN005 OVC008 06/06 A3012 RMK AO2 SFC VIS 1 1/4 SLP205 P0011 T00560056
KTOL 231537Z 00000KT 1SM -RA BR OVC007 05/05 A3009 RMK AO2 P0008 T00500050 RVRNO
KTOL 231457Z 00000KT 1SM -RA BR OVC004 04/04 A3011 RMK AO2 P0001 T00440044 RVRNO
KTOL 231452Z 00000KT 3/4SM -RA BR VV005 04/04 A3011 RMK AO2 SFC VIS 1 SLP203 P0009 60013 T00440044 56030 RVRNO
KTOL 231352Z 13004KT 1SM -RA BR OVC003 03/03 A3013 RMK AO2 RAE10B52 SLP209 P0001 T00330033 RVRNO
KTOL 231344Z 13004KT 1SM BR OVC003 03/03 A3013 RMK AO2 RAE10 P0001 T00330033 RVRNO
KTOL 231300Z 11005KT 2SM -RA BR OVC003 03/03 A3016 RMK AO2 P0001 T00280028
KTOL 231252Z AUTO 11006KT 1SM -RA BR OVC003 03/03 A3016 RMK AO2 RAE24B43UPB22E23 SLP218 P0003 T00280028 RVRNO
KTOL 231232Z 11004KT 2SM BR OVC003 03/03 A3017 RMK AO2 RAE24UPB22E23 P0003 T00280028
KTOL 231220Z 11007KT 4SM -RA BR OVC003 02/02 A3018 RMK AO2 PRESFR P0003 T00220022
KTOL 231152Z 11006KT 2 1/2SM -RA BR OVC002 02/02 A3020 RMK AO2 RAE1059B15 SLP234 P0000 60002 70004 T00220022 10022 20011 58037
KTOL 231052Z 10005KT 2SM -RA BR OVC002 02/02 A3023 RMK AO2 RAB21 SLP245 P0001 T00170017
KTOL 231045Z 11006KT 1 3/4SM -RA BR OVC002 02/02 A3024 RMK AO2 RAB21 P0001 T00170017
KTOL 231010Z 11005KT 2 1/2SM BR OVC003 02/02 A3027 RMK AO2 T00170017